sensor_id;sensor_type;location;lat;lon;timestamp;pressure;altitude;pressure_sealevel;temperature;humidity
62237;BME280;69163;48.778;2.308;2023-07-31T00:00:18;100818.81;;;21.67;40.32
62237;BME280;69163;48.778;2.308;2023-07-31T00:02:43;100814.98;;;21.74;40.21
62237;BME280;69163;48.778;2.308;2023-07-31T00:05:09;100818.34;;;21.88;40.02
62237;BME280;69163;48.778;2.308;2023-07-31T00:07:34;100818.45;;;22.09;40.01
62237;BME280;69163;48.778;2.308;2023-07-31T00:09:59;100818.31;;;21.93;39.87
62237;BME280;69163;48.778;2.308;2023-07-31T00:12:24;100818.52;;;22.18;39.83
62237;BME280;69163;48.778;2.308;2023-07-31T00:14:50;100820.18;;;22.16;39.83
62237;BME280;69163;48.778;2.308;2023-07-31T00:17:16;100821.07;;;22.03;39.67
62237;BME280;69163;48.778;2.308;2023-07-31T00:19:40;100821.82;;;21.94;39.78
62237;BME280;69163;48.778;2.308;2023-07-31T00:22:05;100812.40;;;21.95;39.78
62237;BME280;69163;48.778;2.308;2023-07-31T00:24:30;100810.14;;;21.93;39.78
62237;BME280;69163;48.778;2.308;2023-07-31T00:26:56;100807.51;;;21.95;39.72
62237;BME280;69163;48.778;2.308;2023-07-31T00:29:21;100810.67;;;21.94;39.72
62237;BME280;69163;48.778;2.308;2023-07-31T00:31:46;100802.04;;;21.92;39.75
62237;BME280;69163;48.778;2.308;2023-07-31T00:34:11;100797.45;;;21.88;39.78
62237;BME280;69163;48.778;2.308;2023-07-31T00:36:36;100795.55;;;22.20;39.66
62237;BME280;69163;48.778;2.308;2023-07-31T00:39:01;100791.22;;;22.16;39.70
62237;BME280;69163;48.778;2.308;2023-07-31T00:41:27;100783.82;;;21.87;39.77
62237;BME280;69163;48.778;2.308;2023-07-31T00:43:52;100784.28;;;21.89;39.74
62237;BME280;69163;48.778;2.308;2023-07-31T00:46:17;100787.11;;;22.12;39.74
62237;BME280;69163;48.778;2.308;2023-07-31T00:48:43;100783.31;;;21.84;39.80
62237;BME280;69163;48.778;2.308;2023-07-31T00:51:08;100789.46;;;21.83;39.78
62237;BME280;69163;48.778;2.308;2023-07-31T00:53:33;100791.59;;;21.88;39.68
62237;BME280;69163;48.778;2.308;2023-07-31T00:55:58;100791.48;;;21.89;39.68
62237;BME280;69163;48.778;2.308;2023-07-31T00:58:23;100790.08;;;21.89;39.68
62237;BME280;69163;48.778;2.308;2023-07-31T01:00:49;100783.20;;;21.90;39.66
62237;BME280;69163;48.778;2.308;2023-07-31T01:03:13;100781.50;;;21.90;39.66
62237;BME280;69163;48.778;2.308;2023-07-31T01:05:46;100781.12;;;21.91;39.63
62237;BME280;69163;48.778;2.308;2023-07-31T01:08:09;100783.52;;;21.87;39.67
62237;BME280;69163;48.778;2.308;2023-07-31T01:10:36;100780.47;;;21.92;39.60
62237;BME280;69163;48.778;2.308;2023-07-31T01:12:57;100777.02;;;21.89;39.61
62237;BME280;69163;48.778;2.308;2023-07-31T01:15:20;100778.55;;;21.91;39.58
62237;BME280;69163;48.778;2.308;2023-07-31T01:17:45;100768.42;;;21.88;39.59
62237;BME280;69163;48.778;2.308;2023-07-31T01:20:12;100765.58;;;21.86;39.63
62237;BME280;69163;48.778;2.308;2023-07-31T01:22:49;100764.22;;;21.85;39.65
62237;BME280;69163;48.778;2.308;2023-07-31T01:25:10;100757.94;;;21.80;39.71
62237;BME280;69163;48.778;2.308;2023-07-31T01:27:30;100744.16;;;21.82;39.68
62237;BME280;69163;48.778;2.308;2023-07-31T01:29:58;100739.15;;;21.85;39.62
62237;BME280;69163;48.778;2.308;2023-07-31T01:32:18;100738.87;;;21.80;39.70
62237;BME280;69163;48.778;2.308;2023-07-31T01:34:41;100740.95;;;21.71;39.79
62237;BME280;69163;48.778;2.308;2023-07-31T01:37:06;100746.99;;;21.74;39.77
62237;BME280;69163;48.778;2.308;2023-07-31T01:39:32;100748.46;;;21.94;39.78
62237;BME280;69163;48.778;2.308;2023-07-31T01:41:58;100745.44;;;21.60;39.93
62237;BME280;69163;48.778;2.308;2023-07-31T01:44:22;100751.93;;;21.97;39.79
62237;BME280;69163;48.778;2.308;2023-07-31T01:46:47;100753.78;;;21.94;39.81
62237;BME280;69163;48.778;2.308;2023-07-31T01:49:12;100756.14;;;22.10;39.89
62237;BME280;69163;48.778;2.308;2023-07-31T01:51:38;100752.44;;;21.97;39.77
62237;BME280;69163;48.778;2.308;2023-07-31T01:54:03;100745.65;;;21.97;40.03
62237;BME280;69163;48.778;2.308;2023-07-31T01:56:28;100741.11;;;21.88;40.15
62237;BME280;69163;48.778;2.308;2023-07-31T01:58:53;100741.93;;;21.61;39.97
62237;BME280;69163;48.778;2.308;2023-07-31T02:01:18;100744.40;;;21.62;39.90
62237;BME280;69163;48.778;2.308;2023-07-31T02:03:44;100748.37;;;22.15;39.81
62237;BME280;69163;48.778;2.308;2023-07-31T02:06:09;100753.12;;;21.56;39.95
62237;BME280;69163;48.778;2.308;2023-07-31T02:08:34;100752.58;;;21.54;40.00
62237;BME280;69163;48.778;2.308;2023-07-31T02:10:59;100740.20;;;21.59;39.90
62237;BME280;69163;48.778;2.308;2023-07-31T02:13:24;100744.45;;;21.51;40.01
62237;BME280;69163;48.778;2.308;2023-07-31T02:15:50;100753.10;;;21.35;40.22
62237;BME280;69163;48.778;2.308;2023-07-31T02:18:15;100744.34;;;21.66;40.14
62237;BME280;69163;48.778;2.308;2023-07-31T02:20:40;100737.57;;;21.40;40.15
62237;BME280;69163;48.778;2.308;2023-07-31T02:23:05;100736.85;;;21.72;40.05
62237;BME280;69163;48.778;2.308;2023-07-31T02:25:31;100725.29;;;21.51;40.01
62237;BME280;69163;48.778;2.308;2023-07-31T02:27:56;100716.86;;;21.66;40.10
62237;BME280;69163;48.778;2.308;2023-07-31T02:30:21;100715.88;;;21.75;39.97
62237;BME280;69163;48.778;2.308;2023-07-31T02:32:46;100720.45;;;21.92;40.07
62237;BME280;69163;48.778;2.308;2023-07-31T02:35:11;100721.82;;;21.29;40.27
62237;BME280;69163;48.778;2.308;2023-07-31T02:37:37;100714.23;;;21.72;40.32
62237;BME280;69163;48.778;2.308;2023-07-31T02:40:02;100707.75;;;21.50;40.32
62237;BME280;69163;48.778;2.308;2023-07-31T02:42:26;100699.02;;;21.47;40.33
62237;BME280;69163;48.778;2.308;2023-07-31T02:44:52;100691.13;;;21.21;40.37
62237;BME280;69163;48.778;2.308;2023-07-31T02:47:17;100684.38;;;21.70;40.34
62237;BME280;69163;48.778;2.308;2023-07-31T02:49:43;100689.88;;;21.91;40.33
62237;BME280;69163;48.778;2.308;2023-07-31T02:52:07;100699.92;;;21.57;40.47
62237;BME280;69163;48.778;2.308;2023-07-31T02:54:33;100695.03;;;21.64;40.39
62237;BME280;69163;48.778;2.308;2023-07-31T02:56:58;100690.59;;;21.15;40.43
62237;BME280;69163;48.778;2.308;2023-07-31T02:59:23;100680.36;;;21.63;40.41
62237;BME280;69163;48.778;2.308;2023-07-31T03:01:49;100680.29;;;21.49;40.30
62237;BME280;69163;48.778;2.308;2023-07-31T03:04:14;100679.29;;;21.47;40.29
62237;BME280;69163;48.778;2.308;2023-07-31T03:06:39;100684.17;;;21.23;40.29
62237;BME280;69163;48.778;2.308;2023-07-31T03:09:04;100684.07;;;21.48;40.29
62237;BME280;69163;48.778;2.308;2023-07-31T03:11:30;100677.34;;;21.72;40.29
62237;BME280;69163;48.778;2.308;2023-07-31T03:13:55;100674.74;;;21.63;40.36
62237;BME280;69163;48.778;2.308;2023-07-31T03:16:20;100681.76;;;21.66;40.37
62237;BME280;69163;48.778;2.308;2023-07-31T03:18:45;100684.19;;;21.61;40.42
62237;BME280;69163;48.778;2.308;2023-07-31T03:21:10;100689.06;;;21.54;40.47
62237;BME280;69163;48.778;2.308;2023-07-31T03:23:35;100690.99;;;21.48;40.59
62237;BME280;69163;48.778;2.308;2023-07-31T03:26:02;100688.09;;;21.09;40.44
62237;BME280;69163;48.778;2.308;2023-07-31T03:28:25;100677.52;;;21.55;40.47
62237;BME280;69163;48.778;2.308;2023-07-31T03:30:52;100674.05;;;21.54;40.50
62237;BME280;69163;48.778;2.308;2023-07-31T03:33:16;100674.64;;;21.48;40.58
62237;BME280;69163;48.778;2.308;2023-07-31T03:35:41;100666.58;;;21.48;40.57
62237;BME280;69163;48.778;2.308;2023-07-31T03:38:06;100662.33;;;21.25;40.56
62237;BME280;69163;48.778;2.308;2023-07-31T03:40:32;100662.10;;;21.64;40.67
62237;BME280;69163;48.778;2.308;2023-07-31T03:42:58;100670.28;;;21.40;40.68
62237;BME280;69163;48.778;2.308;2023-07-31T03:45:22;100670.90;;;21.47;40.62
62237;BME280;69163;48.778;2.308;2023-07-31T03:47:48;100671.81;;;21.64;40.39
62237;BME280;69163;48.778;2.308;2023-07-31T03:50:12;100662.44;;;21.18;40.31
62237;BME280;69163;48.778;2.308;2023-07-31T03:52:37;100666.96;;;21.11;40.39
62237;BME280;69163;48.778;2.308;2023-07-31T03:55:03;100667.60;;;21.07;40.41
62237;BME280;69163;48.778;2.308;2023-07-31T03:57:28;100652.67;;;21.08;40.41
62237;BME280;69163;48.778;2.308;2023-07-31T03:59:53;100659.59;;;21.61;40.36
62237;BME280;69163;48.778;2.308;2023-07-31T04:02:18;100660.74;;;21.08;40.40
62237;BME280;69163;48.778;2.308;2023-07-31T04:04:44;100664.28;;;21.50;40.57
62237;BME280;69163;48.778;2.308;2023-07-31T04:07:09;100655.23;;;21.02;40.49
62237;BME280;69163;48.778;2.308;2023-07-31T04:09:34;100650.87;;;21.65;40.33
62237;BME280;69163;48.778;2.308;2023-07-31T04:12:00;100650.42;;;21.45;40.22
62237;BME280;69163;48.778;2.308;2023-07-31T04:14:25;100646.39;;;21.43;40.25
62237;BME280;69163;48.778;2.308;2023-07-31T04:16:51;100653.53;;;21.69;40.19
62237;BME280;69163;48.778;2.308;2023-07-31T04:19:15;100665.19;;;21.38;40.26
62237;BME280;69163;48.778;2.308;2023-07-31T04:21:40;100652.67;;;21.72;40.17
62237;BME280;69163;48.778;2.308;2023-07-31T04:24:05;100643.94;;;21.53;40.08
62237;BME280;69163;48.778;2.308;2023-07-31T04:26:31;100647.91;;;21.78;40.05
62237;BME280;69163;48.778;2.308;2023-07-31T04:28:57;100644.54;;;21.57;40.00
62237;BME280;69163;48.778;2.308;2023-07-31T04:31:21;100646.65;;;21.44;39.86
62237;BME280;69163;48.778;2.308;2023-07-31T04:33:46;100647.59;;;21.45;39.82
62237;BME280;69163;48.778;2.308;2023-07-31T04:36:11;100647.75;;;21.70;39.78
62237;BME280;69163;48.778;2.308;2023-07-31T04:38:37;100641.81;;;21.70;39.78
62237;BME280;69163;48.778;2.308;2023-07-31T04:41:02;100644.16;;;21.98;39.74
62237;BME280;69163;48.778;2.308;2023-07-31T04:43:27;100653.36;;;21.54;39.65
62237;BME280;69163;48.778;2.308;2023-07-31T04:45:52;100654.03;;;21.60;39.59
62237;BME280;69163;48.778;2.308;2023-07-31T04:48:18;100639.60;;;22.11;39.53
62237;BME280;69163;48.778;2.308;2023-07-31T04:50:43;100636.72;;;21.80;39.60
62237;BME280;69163;48.778;2.308;2023-07-31T04:53:08;100645.21;;;21.56;39.58
62237;BME280;69163;48.778;2.308;2023-07-31T04:55:33;100657.57;;;21.93;39.44
62237;BME280;69163;48.778;2.308;2023-07-31T04:57:59;100663.98;;;21.44;39.41
62237;BME280;69163;48.778;2.308;2023-07-31T05:00:24;100656.91;;;21.73;39.37
62237;BME280;69163;48.778;2.308;2023-07-31T05:02:48;100658.41;;;21.67;39.42
62237;BME280;69163;48.778;2.308;2023-07-31T05:05:13;100660.35;;;21.71;39.39
62237;BME280;69163;48.778;2.308;2023-07-31T05:07:39;100661.48;;;22.13;39.44
62237;BME280;69163;48.778;2.308;2023-07-31T05:10:05;100660.73;;;21.60;39.46
62237;BME280;69163;48.778;2.308;2023-07-31T05:12:29;100661.64;;;21.88;39.44
62237;BME280;69163;48.778;2.308;2023-07-31T05:14:56;100661.34;;;21.67;39.38
62237;BME280;69163;48.778;2.308;2023-07-31T05:17:20;100659.22;;;21.69;39.35
62237;BME280;69163;48.778;2.308;2023-07-31T05:19:45;100653.62;;;21.90;39.37
62237;BME280;69163;48.778;2.308;2023-07-31T05:22:10;100653.46;;;21.73;39.30
62237;BME280;69163;48.778;2.308;2023-07-31T05:24:36;100655.22;;;21.70;39.28
62237;BME280;69163;48.778;2.308;2023-07-31T05:27:01;100651.54;;;21.68;39.33
62237;BME280;69163;48.778;2.308;2023-07-31T05:29:25;100653.38;;;21.99;39.24
62237;BME280;69163;48.778;2.308;2023-07-31T05:31:51;100652.82;;;21.98;39.24
62237;BME280;69163;48.778;2.308;2023-07-31T05:34:16;100648.50;;;21.99;39.23
62237;BME280;69163;48.778;2.308;2023-07-31T05:36:42;100642.43;;;21.90;39.27
62237;BME280;69163;48.778;2.308;2023-07-31T05:39:06;100642.80;;;21.71;39.27
62237;BME280;69163;48.778;2.308;2023-07-31T05:41:32;100640.56;;;21.96;39.22
62237;BME280;69163;48.778;2.308;2023-07-31T05:43:58;100647.80;;;21.79;39.16
62237;BME280;69163;48.778;2.308;2023-07-31T05:46:22;100641.24;;;21.75;39.18
62237;BME280;69163;48.778;2.308;2023-07-31T05:48:47;100645.57;;;21.72;39.24
62237;BME280;69163;48.778;2.308;2023-07-31T05:51:13;100635.78;;;21.77;39.15
62237;BME280;69163;48.778;2.308;2023-07-31T05:53:38;100629.07;;;21.78;39.13
62237;BME280;69163;48.778;2.308;2023-07-31T05:56:03;100627.35;;;21.78;39.12
62237;BME280;69163;48.778;2.308;2023-07-31T05:58:28;100626.51;;;21.77;39.13
62237;BME280;69163;48.778;2.308;2023-07-31T06:00:59;100623.15;;;21.97;39.16
62237;BME280;69163;48.778;2.308;2023-07-31T06:03:19;100621.69;;;21.97;39.17
62237;BME280;69163;48.778;2.308;2023-07-31T06:05:44;100612.59;;;21.75;39.13
62237;BME280;69163;48.778;2.308;2023-07-31T06:08:09;100617.02;;;21.80;39.08
62237;BME280;69163;48.778;2.308;2023-07-31T06:10:34;100614.01;;;21.80;39.06
62237;BME280;69163;48.778;2.308;2023-07-31T06:12:59;100612.81;;;21.77;39.08
62237;BME280;69163;48.778;2.308;2023-07-31T06:15:26;100608.57;;;21.73;39.15
62237;BME280;69163;48.778;2.308;2023-07-31T06:17:50;100598.91;;;22.19;39.19
62237;BME280;69163;48.778;2.308;2023-07-31T06:20:15;100595.97;;;22.24;39.13
62237;BME280;69163;48.778;2.308;2023-07-31T06:22:40;100595.63;;;22.20;39.11
62237;BME280;69163;48.778;2.308;2023-07-31T06:25:06;100598.41;;;21.99;39.14
62237;BME280;69163;48.778;2.308;2023-07-31T06:27:31;100601.30;;;22.03;39.05
62237;BME280;69163;48.778;2.308;2023-07-31T06:29:57;100604.44;;;21.80;39.05
62237;BME280;69163;48.778;2.308;2023-07-31T06:32:21;100605.70;;;22.29;39.06
62237;BME280;69163;48.778;2.308;2023-07-31T06:34:46;100604.57;;;21.79;39.09
62237;BME280;69163;48.778;2.308;2023-07-31T06:37:11;100606.37;;;22.24;39.12
62237;BME280;69163;48.778;2.308;2023-07-31T06:39:37;100599.76;;;22.27;39.08
62237;BME280;69163;48.778;2.308;2023-07-31T06:42:02;100601.62;;;21.97;39.14
62237;BME280;69163;48.778;2.308;2023-07-31T06:44:27;100607.03;;;21.94;39.19
62237;BME280;69163;48.778;2.308;2023-07-31T06:46:52;100604.56;;;21.90;39.21
62237;BME280;69163;48.778;2.308;2023-07-31T06:49:18;100606.78;;;22.14;39.21
62237;BME280;69163;48.778;2.308;2023-07-31T06:51:43;100609.00;;;22.10;39.28
62237;BME280;69163;48.778;2.308;2023-07-31T06:54:08;100618.00;;;22.11;39.28
62237;BME280;69163;48.778;2.308;2023-07-31T06:56:33;100608.32;;;21.88;39.28
62237;BME280;69163;48.778;2.308;2023-07-31T06:58:59;100604.73;;;21.65;39.25
62237;BME280;69163;48.778;2.308;2023-07-31T07:01:23;100605.82;;;21.62;39.28
62237;BME280;69163;48.778;2.308;2023-07-31T07:03:49;100600.82;;;22.09;39.32
62237;BME280;69163;48.778;2.308;2023-07-31T07:06:14;100614.14;;;21.89;39.28
62237;BME280;69163;48.778;2.308;2023-07-31T07:08:39;100610.06;;;22.13;39.27
62237;BME280;69163;48.778;2.308;2023-07-31T07:11:04;100608.03;;;21.91;39.25
62237;BME280;69163;48.778;2.308;2023-07-31T07:13:30;100599.04;;;22.16;39.24
62237;BME280;69163;48.778;2.308;2023-07-31T07:15:55;100598.30;;;21.84;39.34
62237;BME280;69163;48.778;2.308;2023-07-31T07:20:48;100590.29;;;21.79;39.42
62237;BME280;69163;48.778;2.308;2023-07-31T07:23:10;100589.28;;;22.08;39.37
62237;BME280;69163;48.778;2.308;2023-07-31T07:25:38;100586.38;;;22.07;39.41
62237;BME280;69163;48.778;2.308;2023-07-31T07:28:00;100588.60;;;21.53;39.50
62237;BME280;69163;48.778;2.308;2023-07-31T07:30:25;100586.47;;;21.79;39.45
62237;BME280;69163;48.778;2.308;2023-07-31T07:32:51;100586.99;;;21.56;39.43
62237;BME280;69163;48.778;2.308;2023-07-31T07:35:16;100582.42;;;21.83;39.39
62237;BME280;69163;48.778;2.308;2023-07-31T07:37:41;100578.94;;;22.02;39.45
62237;BME280;69163;48.778;2.308;2023-07-31T07:40:08;100576.54;;;21.55;39.46
62237;BME280;69163;48.778;2.308;2023-07-31T07:42:31;100575.14;;;21.97;39.52
62237;BME280;69163;48.778;2.308;2023-07-31T07:44:58;100577.89;;;21.52;39.50
62237;BME280;69163;48.778;2.308;2023-07-31T07:47:22;100573.53;;;21.51;39.51
62237;BME280;69163;48.778;2.308;2023-07-31T07:49:47;100570.95;;;22.00;39.51
62237;BME280;69163;48.778;2.308;2023-07-31T07:52:12;100566.72;;;21.57;39.45
62237;BME280;69163;48.778;2.308;2023-07-31T07:54:38;100573.62;;;22.00;39.50
62237;BME280;69163;48.778;2.308;2023-07-31T07:57:04;100574.59;;;21.76;39.52
62237;BME280;69163;48.778;2.308;2023-07-31T07:59:29;100576.97;;;22.04;39.47
62237;BME280;69163;48.778;2.308;2023-07-31T08:01:54;100568.47;;;21.78;39.50
62237;BME280;69163;48.778;2.308;2023-07-31T08:04:19;100575.24;;;21.99;39.52
62237;BME280;69163;48.778;2.308;2023-07-31T08:06:44;100578.93;;;21.95;39.58
62237;BME280;69163;48.778;2.308;2023-07-31T08:09:09;100572.15;;;21.92;39.64
62237;BME280;69163;48.778;2.308;2023-07-31T08:11:35;100572.51;;;21.89;39.68
62237;BME280;69163;48.778;2.308;2023-07-31T08:14:00;100572.75;;;21.89;39.70
62237;BME280;69163;48.778;2.308;2023-07-31T08:16:25;100568.03;;;21.63;39.71
62237;BME280;69163;48.778;2.308;2023-07-31T08:18:50;100572.90;;;21.82;39.79
62237;BME280;69163;48.778;2.308;2023-07-31T08:21:16;100567.96;;;21.58;39.80
62237;BME280;69163;48.778;2.308;2023-07-31T08:23:41;100577.62;;;21.55;39.83
62237;BME280;69163;48.778;2.308;2023-07-31T08:26:06;100573.01;;;21.31;39.82
62237;BME280;69163;48.778;2.308;2023-07-31T08:28:31;100569.20;;;21.79;39.85
62237;BME280;69163;48.778;2.308;2023-07-31T08:30:57;100567.46;;;21.28;39.87
62237;BME280;69163;48.778;2.308;2023-07-31T08:33:22;100560.53;;;21.72;39.94
62237;BME280;69163;48.778;2.308;2023-07-31T08:35:47;100561.14;;;21.52;39.89
62237;BME280;69163;48.778;2.308;2023-07-31T08:38:12;100564.76;;;21.28;39.88
62237;BME280;69163;48.778;2.308;2023-07-31T08:40:37;100563.90;;;21.77;39.88
62237;BME280;69163;48.778;2.308;2023-07-31T08:43:02;100554.36;;;21.74;39.92
62237;BME280;69163;48.778;2.308;2023-07-31T08:45:28;100550.11;;;21.76;39.90
62237;BME280;69163;48.778;2.308;2023-07-31T08:47:53;100553.19;;;21.75;39.89
62237;BME280;69163;48.778;2.308;2023-07-31T08:50:19;100565.13;;;21.74;39.92
62237;BME280;69163;48.778;2.308;2023-07-31T08:52:43;100569.58;;;21.76;39.89
62237;BME280;69163;48.778;2.308;2023-07-31T08:55:09;100561.51;;;21.71;39.95
62237;BME280;69163;48.778;2.308;2023-07-31T08:57:35;100560.84;;;21.75;39.89
62237;BME280;69163;48.778;2.308;2023-07-31T08:59:59;100552.13;;;21.29;39.88
62237;BME280;69163;48.778;2.308;2023-07-31T09:02:26;100553.27;;;21.75;39.91
62237;BME280;69163;48.778;2.308;2023-07-31T09:04:49;100564.44;;;21.24;39.93
62237;BME280;69163;48.778;2.308;2023-07-31T09:07:15;100563.57;;;21.49;39.95
62237;BME280;69163;48.778;2.308;2023-07-31T09:09:40;100567.17;;;21.68;40.02
62237;BME280;69163;48.778;2.308;2023-07-31T09:12:06;100581.94;;;21.68;40.03
62237;BME280;69163;48.778;2.308;2023-07-31T09:14:31;100572.04;;;21.70;40.00
62237;BME280;69163;48.778;2.308;2023-07-31T09:16:57;100568.14;;;21.60;40.14
62237;BME280;69163;48.778;2.308;2023-07-31T09:19:27;100555.18;;;21.48;40.86
62237;BME280;69163;48.778;2.308;2023-07-31T09:21:48;100544.44;;;21.68;41.35
62237;BME280;69163;48.778;2.308;2023-07-31T09:24:18;100559.87;;;21.40;41.91
62237;BME280;69163;48.778;2.308;2023-07-31T09:26:37;100561.43;;;21.35;42.12
62237;BME280;69163;48.778;2.308;2023-07-31T09:29:04;100555.61;;;21.08;42.39
62237;BME280;69163;48.778;2.308;2023-07-31T09:31:32;100550.08;;;21.21;42.74
62237;BME280;69163;48.778;2.308;2023-07-31T09:33:55;100560.23;;;21.44;42.91
62237;BME280;69163;48.778;2.308;2023-07-31T09:36:17;100556.13;;;21.28;42.94
62237;BME280;69163;48.778;2.308;2023-07-31T09:38:43;100558.68;;;21.29;42.97
62237;BME280;69163;48.778;2.308;2023-07-31T09:41:07;100557.34;;;20.90;42.87
62237;BME280;69163;48.778;2.308;2023-07-31T09:43:33;100556.00;;;21.43;42.78
62237;BME280;69163;48.778;2.308;2023-07-31T09:45:59;100552.54;;;21.47;42.72
62237;BME280;69163;48.778;2.308;2023-07-31T09:48:24;100534.85;;;21.30;42.64
62237;BME280;69163;48.778;2.308;2023-07-31T09:50:49;100544.22;;;21.37;42.59
62237;BME280;69163;48.778;2.308;2023-07-31T09:53:14;100536.10;;;21.51;42.81
62237;BME280;69163;48.778;2.308;2023-07-31T09:55:41;100544.23;;;21.44;42.89
62237;BME280;69163;48.778;2.308;2023-07-31T09:58:06;100543.18;;;21.37;42.98
62237;BME280;69163;48.778;2.308;2023-07-31T10:00:31;100542.93;;;21.36;43.16
62237;BME280;69163;48.778;2.308;2023-07-31T10:02:59;100545.87;;;21.33;43.16
62237;BME280;69163;48.778;2.308;2023-07-31T10:05:21;100526.46;;;21.57;43.10
62237;BME280;69163;48.778;2.308;2023-07-31T10:07:52;100534.34;;;21.40;43.04
62237;BME280;69163;48.778;2.308;2023-07-31T10:10:10;100531.51;;;21.65;43.01
62237;BME280;69163;48.778;2.308;2023-07-31T10:12:36;100512.59;;;21.16;43.14
62237;BME280;69163;48.778;2.308;2023-07-31T10:15:00;100502.81;;;21.16;43.02
62237;BME280;69163;48.778;2.308;2023-07-31T10:17:26;100520.44;;;20.88;43.08
62237;BME280;69163;48.778;2.308;2023-07-31T10:19:51;100520.07;;;21.07;43.16
62237;BME280;69163;48.778;2.308;2023-07-31T10:22:18;100520.56;;;21.32;43.11
62237;BME280;69163;48.778;2.308;2023-07-31T10:24:42;100521.67;;;21.11;43.13
62237;BME280;69163;48.778;2.308;2023-07-31T10:27:07;100512.58;;;20.90;43.12
62237;BME280;69163;48.778;2.308;2023-07-31T10:29:32;100501.27;;;21.41;43.17
62237;BME280;69163;48.778;2.308;2023-07-31T10:31:58;100499.38;;;21.40;43.26
62237;BME280;69163;48.778;2.308;2023-07-31T10:34:23;100505.81;;;21.09;43.83
62237;BME280;69163;48.778;2.308;2023-07-31T10:36:47;100504.12;;;21.07;43.99
62237;BME280;69163;48.778;2.308;2023-07-31T10:41:38;100500.29;;;21.35;44.08
62237;BME280;69163;48.778;2.308;2023-07-31T10:44:04;100501.80;;;21.40;44.05
62237;BME280;69163;48.778;2.308;2023-07-31T10:46:29;100507.30;;;21.01;43.95
62237;BME280;69163;48.778;2.308;2023-07-31T10:48:59;100495.75;;;21.03;43.95
62237;BME280;69163;48.778;2.308;2023-07-31T10:51:21;100490.26;;;21.28;43.95
62237;BME280;69163;48.778;2.308;2023-07-31T10:53:44;100471.39;;;21.25;44.02
62237;BME280;69163;48.778;2.308;2023-07-31T10:56:10;100478.85;;;21.32;43.98
62237;BME280;69163;48.778;2.308;2023-07-31T10:58:34;100489.05;;;21.07;44.00
62237;BME280;69163;48.778;2.308;2023-07-31T11:01:01;100489.83;;;21.30;44.08
62237;BME280;69163;48.778;2.308;2023-07-31T11:03:26;100493.96;;;21.31;44.07
62237;BME280;69163;48.778;2.308;2023-07-31T11:05:51;100476.84;;;21.36;43.98
62237;BME280;69163;48.778;2.308;2023-07-31T11:08:17;100478.68;;;21.36;44.04
62237;BME280;69163;48.778;2.308;2023-07-31T11:10:40;100473.20;;;21.37;44.05
62237;BME280;69163;48.778;2.308;2023-07-31T11:13:05;100469.34;;;21.11;44.11
62237;BME280;69163;48.778;2.308;2023-07-31T11:15:31;100466.28;;;21.35;44.15
62237;BME280;69163;48.778;2.308;2023-07-31T11:17:57;100457.38;;;21.06;44.24
62237;BME280;69163;48.778;2.308;2023-07-31T11:20:21;100452.44;;;21.27;44.35
62237;BME280;69163;48.778;2.308;2023-07-31T11:22:48;100445.90;;;21.28;44.32
62237;BME280;69163;48.778;2.308;2023-07-31T11:25:12;100449.02;;;21.30;44.34
62237;BME280;69163;48.778;2.308;2023-07-31T11:27:39;100458.52;;;21.35;44.28
62237;BME280;69163;48.778;2.308;2023-07-31T11:30:02;100460.55;;;21.30;44.42
62237;BME280;69163;48.778;2.308;2023-07-31T11:32:27;100465.67;;;21.06;44.41
62237;BME280;69163;48.778;2.308;2023-07-31T11:34:53;100473.18;;;21.30;44.45
62237;BME280;69163;48.778;2.308;2023-07-31T11:37:18;100465.61;;;21.29;44.51
62237;BME280;69163;48.778;2.308;2023-07-31T11:39:44;100460.28;;;21.28;44.54
62237;BME280;69163;48.778;2.308;2023-07-31T11:42:08;100467.20;;;21.06;44.54
62237;BME280;69163;48.778;2.308;2023-07-31T11:44:38;100472.57;;;21.27;44.61
62237;BME280;69163;48.778;2.308;2023-07-31T11:47:01;100468.08;;;21.28;44.58
62237;BME280;69163;48.778;2.308;2023-07-31T11:49:24;100464.82;;;21.31;44.60
62237;BME280;69163;48.778;2.308;2023-07-31T11:51:49;100462.54;;;21.04;44.65
62237;BME280;69163;48.778;2.308;2023-07-31T11:54:14;100463.24;;;21.29;44.68
62237;BME280;69163;48.778;2.308;2023-07-31T11:56:39;100453.63;;;21.29;44.69
62237;BME280;69163;48.778;2.308;2023-07-31T11:59:05;100449.80;;;21.25;44.79
62237;BME280;69163;48.778;2.308;2023-07-31T12:01:30;100442.40;;;21.31;44.70
62237;BME280;69163;48.778;2.308;2023-07-31T12:03:56;100439.15;;;21.32;44.69
62237;BME280;69163;48.778;2.308;2023-07-31T12:06:20;100437.57;;;21.29;44.75
62237;BME280;69163;48.778;2.308;2023-07-31T12:08:45;100435.83;;;21.29;44.73
62237;BME280;69163;48.778;2.308;2023-07-31T12:11:11;100436.43;;;21.29;44.79
62237;BME280;69163;48.778;2.308;2023-07-31T12:13:36;100430.86;;;21.28;44.73
62237;BME280;69163;48.778;2.308;2023-07-31T12:16:02;100427.50;;;21.36;44.70
62237;BME280;69163;48.778;2.308;2023-07-31T12:18:27;100425.00;;;21.33;44.68
62237;BME280;69163;48.778;2.308;2023-07-31T12:20:55;100426.18;;;21.31;44.82
62237;BME280;69163;48.778;2.308;2023-07-31T12:23:19;100423.72;;;21.54;44.45
62237;BME280;69163;48.778;2.308;2023-07-31T12:25:42;100423.38;;;21.63;44.22
62237;BME280;69163;48.778;2.308;2023-07-31T12:28:07;100425.65;;;21.18;43.71
62237;BME280;69163;48.778;2.308;2023-07-31T12:30:34;100426.65;;;21.61;43.96
62237;BME280;69163;48.778;2.308;2023-07-31T12:33:03;100415.88;;;21.25;43.82
62237;BME280;69163;48.778;2.308;2023-07-31T12:35:24;100413.48;;;21.27;43.80
62237;BME280;69163;48.778;2.308;2023-07-31T12:37:49;100407.28;;;21.33;43.71
62237;BME280;69163;48.778;2.308;2023-07-31T12:40:14;100403.32;;;21.11;43.66
62237;BME280;69163;48.778;2.308;2023-07-31T12:42:40;100400.34;;;21.39;43.63